createdAt,value
2023-03-21T00:01:00.716Z,8.90
2023-03-21T00:03:35.945Z,9.00
2023-03-21T00:06:12.351Z,9.00
2023-03-21T00:08:45.441Z,9.00
2023-03-21T00:11:17.189Z,9.10
2023-03-21T00:13:48.465Z,9.10
2023-03-21T00:16:24.162Z,9.10
2023-03-21T00:19:03.628Z,9.10
2023-03-21T00:21:51.918Z,9.20
2023-03-21T00:24:31.589Z,9.20
2023-03-21T00:27:21.950Z,9.20
2023-03-21T00:29:53.932Z,9.20
2023-03-21T00:32:25.220Z,9.20
2023-03-21T00:35:16.394Z,9.20
2023-03-21T00:37:51.841Z,9.20
2023-03-21T00:40:29.537Z,9.20
2023-03-21T00:43:04.256Z,9.20
2023-03-21T00:45:38.140Z,9.20
2023-03-21T00:48:09.922Z,9.30
2023-03-21T00:50:45.866Z,9.30
2023-03-21T00:53:20.589Z,9.30
2023-03-21T00:55:52.617Z,9.30
2023-03-21T00:58:25.896Z,9.30
2023-03-21T01:00:59.217Z,9.30
2023-03-21T01:03:30.195Z,9.40
2023-03-21T01:06:07.914Z,9.40
2023-03-21T01:08:53.042Z,9.40
2023-03-21T01:11:25.953Z,9.40
2023-03-21T01:14:14.791Z,9.40
2023-03-21T01:16:54.113Z,9.50
2023-03-21T01:19:35.244Z,9.50
2023-03-21T01:22:12.189Z,9.50
2023-03-21T01:24:54.163Z,9.50
2023-03-21T01:27:29.835Z,9.50
2023-03-21T01:30:02.541Z,9.50
2023-03-21T01:32:35.356Z,9.50
2023-03-21T01:35:07.359Z,9.50
2023-03-21T01:37:39.363Z,9.60
2023-03-21T01:40:15.072Z,9.50
2023-03-21T01:42:47.670Z,9.50
2023-03-21T01:45:34.664Z,9.50
2023-03-21T01:48:07.096Z,9.50
2023-03-21T01:50:47.265Z,9.50
2023-03-21T01:53:31.023Z,9.50
2023-03-21T01:56:09.835Z,9.50
2023-03-21T01:58:52.150Z,9.50
2023-03-21T02:01:45.333Z,9.50
2023-03-21T02:04:22.766Z,9.50
2023-03-21T02:07:02.916Z,9.50
2023-03-21T02:09:46.012Z,9.50
2023-03-21T02:12:24.630Z,9.50
2023-03-21T02:14:57.769Z,9.50
2023-03-21T02:17:49.392Z,9.60
2023-03-21T02:20:41.171Z,9.50
2023-03-21T02:23:27.971Z,9.50
2023-03-21T02:26:14.392Z,9.50
2023-03-21T02:28:52.088Z,9.60
2023-03-21T02:31:30.015Z,9.50
2023-03-21T02:34:11.715Z,9.50
2023-03-21T02:36:58.585Z,9.50
2023-03-21T02:39:36.305Z,9.50
2023-03-21T02:42:11.763Z,9.50
2023-03-21T02:44:46.333Z,9.50
2023-03-21T02:47:23.679Z,9.50
2023-03-21T02:49:58.484Z,9.40
2023-03-21T02:52:39.540Z,9.40
2023-03-21T02:55:19.379Z,9.40
2023-03-21T02:58:06.950Z,9.40
2023-03-21T03:00:43.264Z,9.40
2023-03-21T03:03:28.108Z,9.40
2023-03-21T03:06:06.790Z,9.40
2023-03-21T03:08:56.314Z,9.40
2023-03-21T03:11:37.179Z,9.40
2023-03-21T03:14:44.196Z,9.30
2023-03-21T03:17:21.905Z,9.30
2023-03-21T03:20:15.117Z,9.30
2023-03-21T03:22:51.991Z,9.30
2023-03-21T03:25:41.279Z,9.20
2023-03-21T03:28:19.065Z,9.10
2023-03-21T03:31:07.575Z,9.10
2023-03-21T03:33:47.753Z,9.00
2023-03-21T03:36:31.668Z,9.00
2023-03-21T03:39:09.254Z,9.00
2023-03-21T03:42:05.964Z,9.00
2023-03-21T03:44:42.440Z,9.00
2023-03-21T03:47:26.387Z,9.00
2023-03-21T03:50:05.247Z,8.90
2023-03-21T03:52:53.528Z,8.90
2023-03-21T03:55:34.745Z,8.90
2023-03-21T03:58:23.898Z,8.90
2023-03-21T04:01:01.010Z,8.90
2023-03-21T04:03:46.125Z,8.90
2023-03-21T04:06:19.801Z,8.90
2023-03-21T04:08:52.733Z,8.90
2023-03-21T04:11:24.321Z,8.90
2023-03-21T04:13:59.344Z,8.90
2023-03-21T04:16:35.830Z,8.90
2023-03-21T04:19:07.334Z,8.90
2023-03-21T04:21:38.389Z,8.90
2023-03-21T04:24:12.296Z,8.80
2023-03-21T04:26:43.881Z,8.80
2023-03-21T04:29:38.724Z,8.80
2023-03-21T04:32:54.362Z,8.80
2023-03-21T04:35:26.759Z,8.80
2023-03-21T04:37:59.285Z,8.70
2023-03-21T04:40:30.939Z,8.70
2023-03-21T04:43:02.610Z,8.70
2023-03-21T04:45:34.056Z,8.70
2023-03-21T04:48:08.184Z,8.70
2023-03-21T04:50:40.019Z,8.70
2023-03-21T04:53:11.781Z,8.70
2023-03-21T04:55:43.404Z,8.70
2023-03-21T04:58:15.855Z,8.70
2023-03-21T05:00:53.397Z,8.70
2023-03-21T05:03:34.939Z,8.60
2023-03-21T05:06:07.556Z,8.60
2023-03-21T05:08:39.016Z,8.60
2023-03-21T05:11:11.697Z,8.60
2023-03-21T05:13:43.423Z,8.60
2023-03-21T05:16:15.935Z,8.60
2023-03-21T05:18:51.705Z,8.60
2023-03-21T05:21:24.690Z,8.60
2023-03-21T05:23:58.776Z,8.60
2023-03-21T05:26:30.398Z,8.50
2023-03-21T05:29:18.578Z,8.50
2023-03-21T05:31:58.041Z,8.40
2023-03-21T05:34:32.547Z,8.40
2023-03-21T05:37:05.532Z,8.30
2023-03-21T05:39:54.656Z,8.20
2023-03-21T05:42:34.894Z,8.20
2023-03-21T05:45:15.457Z,8.10
2023-03-21T05:47:47.563Z,8.00
2023-03-21T05:50:22.495Z,7.90
2023-03-21T05:53:07.809Z,7.90
2023-03-21T05:55:39.508Z,7.80
2023-03-21T05:58:16.104Z,7.90
2023-03-21T06:00:52.549Z,7.90
2023-03-21T06:03:31.779Z,7.90
2023-03-21T06:06:26.824Z,7.90
2023-03-21T06:09:04.719Z,7.90
2023-03-21T06:11:37.389Z,8.00
2023-03-21T06:14:41.447Z,8.00
2023-03-21T06:17:23.823Z,8.10
2023-03-21T06:20:01.555Z,8.10
2023-03-21T06:22:40.744Z,8.20
2023-03-21T06:25:14.789Z,8.20
2023-03-21T06:27:45.845Z,8.20
2023-03-21T06:30:18.926Z,8.30
2023-03-21T06:33:03.344Z,8.30
2023-03-21T06:35:35.581Z,8.30
2023-03-21T06:38:10.495Z,8.30
2023-03-21T06:40:43.644Z,8.30
2023-03-21T06:43:15.325Z,8.30
2023-03-21T06:45:48.096Z,8.40
2023-03-21T06:48:20.499Z,8.50
2023-03-21T06:50:54.758Z,8.50
2023-03-21T06:53:30.474Z,8.60
2023-03-21T06:56:20.319Z,8.60
2023-03-21T06:58:51.911Z,8.60
2023-03-21T07:01:44.755Z,8.60
2023-03-21T07:04:16.336Z,8.50
2023-03-21T07:06:49.618Z,8.50
2023-03-21T07:09:28.614Z,8.60
2023-03-21T07:12:06.517Z,8.60
2023-03-21T07:14:52.169Z,8.70
2023-03-21T07:17:24.518Z,8.80
2023-03-21T07:19:56.304Z,8.70
2023-03-21T07:22:28.646Z,8.70
2023-03-21T07:25:05.353Z,8.70
2023-03-21T07:27:42.645Z,8.80
2023-03-21T07:30:14.845Z,8.90
2023-03-21T07:32:46.312Z,8.90
2023-03-21T07:35:19.218Z,8.80
2023-03-21T07:37:50.781Z,8.80
2023-03-21T07:40:25.912Z,8.80
2023-03-21T07:42:57.988Z,8.80
2023-03-21T07:45:39.143Z,8.90
2023-03-21T07:48:13.294Z,8.90
2023-03-21T07:50:44.545Z,8.90
2023-03-21T07:53:17.174Z,9.00
2023-03-21T07:55:56.131Z,9.00
2023-03-21T07:58:28.778Z,8.90
2023-03-21T08:00:59.854Z,8.90
2023-03-21T08:03:33.823Z,8.80
2023-03-21T08:06:05.796Z,8.80
2023-03-21T08:08:37.659Z,8.80
2023-03-21T08:11:11.745Z,8.80
2023-03-21T08:13:43.280Z,8.90
2023-03-21T08:16:14.389Z,8.90
2023-03-21T08:18:47.252Z,9.00
2023-03-21T08:21:19.544Z,9.00
2023-03-21T08:23:51.885Z,9.10
2023-03-21T08:26:26.028Z,9.10
2023-03-21T08:28:57.404Z,9.20
2023-03-21T08:31:29.786Z,9.20
2023-03-21T08:34:01.500Z,9.20
2023-03-21T08:36:34.167Z,9.20
2023-03-21T08:39:07.769Z,9.20
2023-03-21T08:41:41.739Z,9.20
2023-03-21T08:44:14.211Z,9.20
2023-03-21T08:46:46.906Z,9.30
2023-03-21T08:49:18.314Z,9.30
2023-03-21T08:51:49.674Z,9.40
2023-03-21T08:54:22.490Z,9.40
2023-03-21T08:56:56.952Z,9.50
2023-03-21T08:59:28.666Z,9.50
2023-03-21T09:02:00.653Z,9.60
2023-03-21T09:04:32.496Z,9.80
2023-03-21T09:07:07.152Z,9.70
2023-03-21T09:09:38.901Z,9.70
2023-03-21T09:12:12.736Z,9.80
2023-03-21T09:14:44.793Z,9.80
2023-03-21T09:17:16.021Z,9.90
2023-03-21T09:19:50.293Z,9.90
2023-03-21T09:22:21.768Z,9.90
2023-03-21T09:24:53.783Z,9.90
2023-03-21T09:27:28.608Z,9.90
2023-03-21T09:30:00.985Z,9.90
2023-03-21T09:32:32.860Z,10.00
2023-03-21T09:35:07.445Z,10.00
2023-03-21T09:37:42.447Z,10.10
2023-03-21T09:40:19.418Z,10.10
2023-03-21T09:43:00.539Z,10.00
2023-03-21T09:45:37.469Z,10.00
2023-03-21T09:48:15.371Z,10.10
2023-03-21T09:50:47.631Z,10.10
2023-03-21T09:53:22.105Z,10.00
2023-03-21T09:55:54.300Z,9.90
2023-03-21T09:58:32.052Z,9.90
2023-03-21T10:01:07.912Z,9.90
2023-03-21T10:03:39.279Z,9.80
2023-03-21T10:06:16.547Z,9.80
2023-03-21T10:08:50.241Z,9.70
2023-03-21T10:11:24.326Z,9.70
2023-03-21T10:13:59.591Z,9.70
2023-03-21T10:16:33.461Z,9.70
2023-03-21T10:19:08.497Z,9.70
2023-03-21T10:21:59.590Z,9.70
2023-03-21T10:24:34.371Z,9.80
2023-03-21T10:27:06.889Z,9.90
2023-03-21T10:29:43.744Z,9.90
2023-03-21T10:32:16.909Z,9.90
2023-03-21T10:34:50.577Z,10.00
2023-03-21T10:37:22.126Z,9.90
2023-03-21T10:39:53.796Z,9.90
2023-03-21T10:42:25.435Z,9.80
2023-03-21T10:44:59.530Z,9.80
2023-03-21T10:47:31.454Z,9.80
2023-03-21T10:50:08.143Z,9.80
2023-03-21T10:52:41.449Z,9.80
2023-03-21T10:55:19.873Z,9.70
2023-03-21T10:57:51.258Z,9.70
2023-03-21T11:00:26.003Z,9.60
2023-03-21T11:02:57.242Z,9.60
2023-03-21T11:05:30.465Z,9.50
2023-03-21T11:08:07.096Z,9.50
2023-03-21T11:10:38.300Z,9.50
2023-03-21T11:13:10.539Z,9.50
2023-03-21T11:15:52.625Z,9.50
2023-03-21T11:18:25.364Z,9.50
2023-03-21T11:20:56.709Z,9.50
2023-03-21T11:23:29.652Z,9.50
2023-03-21T11:26:02.276Z,9.60
2023-03-21T11:28:36.689Z,9.60
2023-03-21T11:31:10.952Z,9.60
2023-03-21T11:33:46.170Z,9.60
2023-03-21T11:36:30.622Z,9.60
2023-03-21T11:39:02.455Z,9.60
2023-03-21T11:41:34.286Z,9.70
2023-03-21T11:44:06.374Z,9.70
2023-03-21T11:46:43.492Z,9.80
2023-03-21T11:49:14.647Z,9.80
2023-03-21T11:51:51.614Z,9.90
2023-03-21T11:54:25.507Z,9.90
2023-03-21T11:56:57.168Z,10.00
2023-03-21T11:59:40.825Z,10.10
2023-03-21T12:02:21.595Z,10.10
2023-03-21T12:04:56.805Z,10.20
2023-03-21T12:07:36.439Z,10.20
2023-03-21T12:10:24.309Z,10.20
2023-03-21T12:12:58.612Z,10.20
2023-03-21T12:15:34.189Z,10.30
2023-03-21T12:18:10.734Z,10.20
2023-03-21T12:20:48.019Z,10.30
2023-03-21T12:23:23.940Z,10.30
2023-03-21T12:25:58.382Z,10.40
2023-03-21T12:28:34.877Z,10.40
2023-03-21T12:31:11.778Z,10.40
2023-03-21T12:33:56.858Z,10.40
2023-03-21T12:36:44.009Z,10.40
2023-03-21T12:39:20.178Z,10.50
2023-03-21T12:42:00.899Z,10.60
2023-03-21T12:44:35.318Z,10.60
2023-03-21T12:47:10.073Z,10.70
2023-03-21T12:49:47.299Z,10.70
2023-03-21T12:52:20.079Z,10.60
2023-03-21T12:54:52.958Z,10.50
2023-03-21T12:57:26.136Z,10.50
2023-03-21T12:59:59.239Z,10.30
2023-03-21T13:02:32.614Z,10.30
2023-03-21T13:05:10.007Z,10.30
2023-03-21T13:07:42.672Z,10.30
2023-03-21T13:10:16.960Z,10.30
2023-03-21T13:12:51.868Z,10.20
2023-03-21T13:15:48.667Z,10.20
2023-03-21T13:18:22.584Z,10.20
2023-03-21T13:20:57.319Z,10.20
2023-03-21T13:23:28.560Z,10.20
2023-03-21T13:26:00.721Z,10.20
2023-03-21T13:28:32.592Z,10.20
2023-03-21T13:31:17.987Z,10.30
2023-03-21T13:33:49.366Z,10.30
2023-03-21T13:36:26.789Z,10.40
2023-03-21T13:39:01.829Z,10.40
2023-03-21T13:41:35.636Z,10.50
2023-03-21T13:44:11.433Z,10.50
2023-03-21T13:46:53.970Z,10.50
2023-03-21T13:49:33.289Z,10.50
2023-03-21T13:52:24.756Z,10.40
2023-03-21T13:54:56.295Z,10.40
2023-03-21T13:57:39.337Z,10.40
2023-03-21T14:00:24.494Z,10.40
2023-03-21T14:02:58.435Z,10.40
2023-03-21T14:05:30.551Z,10.40
2023-03-21T14:08:15.258Z,10.40
2023-03-21T14:10:51.596Z,10.20
2023-03-21T14:13:23.312Z,10.10
2023-03-21T14:15:56.695Z,10.00
2023-03-21T14:18:51.734Z,9.90
2023-03-21T14:21:24.181Z,9.90
2023-03-21T14:24:07.031Z,9.80
2023-03-21T14:26:39.218Z,9.80
2023-03-21T14:29:25.257Z,9.80
2023-03-21T14:31:58.601Z,9.80
2023-03-21T14:34:29.999Z,9.80
2023-03-21T14:37:01.335Z,9.90
2023-03-21T14:39:34.982Z,9.80
2023-03-21T14:42:07.015Z,9.80
2023-03-21T14:44:53.356Z,9.80
2023-03-21T14:47:28.240Z,9.80
2023-03-21T14:50:00.580Z,9.80
2023-03-21T14:52:33.318Z,9.80
2023-03-21T14:55:14.601Z,9.90
2023-03-21T14:57:45.607Z,9.90
2023-03-21T15:00:21.160Z,9.90
2023-03-21T15:02:52.405Z,9.80
2023-03-21T15:05:26.596Z,9.80
2023-03-21T15:07:59.173Z,9.80
2023-03-21T15:10:33.606Z,9.70
2023-03-21T15:13:05.366Z,9.70
2023-03-21T15:15:36.079Z,9.70
2023-03-21T15:18:11.433Z,9.60
2023-03-21T15:20:42.706Z,9.60
2023-03-21T15:23:15.969Z,9.60
2023-03-21T15:25:49.151Z,9.60
2023-03-21T15:28:20.152Z,9.50
2023-03-21T15:30:52.229Z,9.50
2023-03-21T15:33:23.832Z,9.40
2023-03-21T15:35:55.886Z,9.30
2023-03-21T15:38:31.845Z,9.30
2023-03-21T15:41:17.968Z,9.30
2023-03-21T15:43:52.333Z,9.20
2023-03-21T15:46:36.049Z,9.20
2023-03-21T15:49:11.272Z,9.20
2023-03-21T15:51:43.876Z,9.20
2023-03-21T15:54:17.426Z,9.20
2023-03-21T15:56:51.853Z,9.20
2023-03-21T15:59:27.138Z,9.20
2023-03-21T16:01:57.776Z,9.20
2023-03-21T16:04:28.668Z,9.20
2023-03-21T16:07:01.699Z,9.20
2023-03-21T16:09:41.332Z,9.10
2023-03-21T16:12:13.632Z,9.10
2023-03-21T16:14:49.080Z,9.00
2023-03-21T16:17:29.625Z,9.10
2023-03-21T16:20:00.418Z,8.90
2023-03-21T16:22:35.045Z,8.90
2023-03-21T16:25:05.820Z,8.80
2023-03-21T16:27:36.709Z,8.70
2023-03-21T16:30:11.969Z,8.70
2023-03-21T16:32:42.632Z,8.70
2023-03-21T16:35:13.523Z,8.60
2023-03-21T16:37:44.063Z,8.50
2023-03-21T16:40:28.016Z,8.40
2023-03-21T16:42:59.269Z,8.30
2023-03-21T16:45:33.959Z,8.20
2023-03-21T16:48:04.897Z,8.20
2023-03-21T16:50:37.689Z,8.10
2023-03-21T16:53:09.990Z,8.10
2023-03-21T16:55:41.373Z,8.00
2023-03-21T16:58:12.236Z,8.00
2023-03-21T17:00:46.105Z,8.00
2023-03-21T17:03:19.350Z,8.00
2023-03-21T17:05:51.510Z,7.90
2023-03-21T17:08:23.238Z,7.90
2023-03-21T17:10:54.774Z,7.90
2023-03-21T17:13:25.991Z,7.90
2023-03-21T17:16:00.196Z,7.90
2023-03-21T17:18:31.483Z,7.90
2023-03-21T17:21:03.014Z,7.90
2023-03-21T17:23:33.733Z,7.90
2023-03-21T17:26:04.996Z,7.90
2023-03-21T17:28:36.731Z,7.90
2023-03-21T17:31:15.331Z,7.90
2023-03-21T17:33:46.644Z,7.90
2023-03-21T17:36:19.186Z,7.90
2023-03-21T17:38:50.302Z,7.90
2023-03-21T17:41:23.098Z,7.90
2023-03-21T17:43:56.081Z,7.90
2023-03-21T17:46:32.794Z,7.90
2023-03-21T17:49:04.399Z,7.90
2023-03-21T17:51:35.987Z,7.90
2023-03-21T17:54:07.382Z,7.90
2023-03-21T17:56:40.420Z,7.90
2023-03-21T17:59:14.317Z,7.80
2023-03-21T18:01:48.724Z,7.80
2023-03-21T18:04:20.469Z,7.80
2023-03-21T18:06:54.528Z,7.80
2023-03-21T18:09:26.644Z,7.80
2023-03-21T18:12:00.857Z,7.70
2023-03-21T18:14:34.170Z,7.70
2023-03-21T18:17:12.475Z,7.70
2023-03-21T18:19:44.792Z,7.70
2023-03-21T18:22:18.630Z,7.60
2023-03-21T18:24:50.444Z,7.60
2023-03-21T18:27:22.672Z,7.60
2023-03-21T18:30:25.631Z,7.60
2023-03-21T18:32:48.077Z,7.60
2023-03-21T18:35:22.882Z,7.60
2023-03-21T18:37:55.113Z,7.70
2023-03-21T18:40:28.249Z,7.70
2023-03-21T18:45:52.213Z,7.70
2023-03-21T18:48:26.663Z,7.70
2023-03-21T18:50:58.167Z,7.70
2023-03-21T18:53:30.136Z,7.70
2023-03-21T18:56:02.229Z,7.70
2023-03-21T18:58:34.160Z,7.60
2023-03-21T19:01:05.781Z,7.60
2023-03-21T19:03:43.005Z,7.60
2023-03-21T19:06:17.569Z,7.60
2023-03-21T19:08:49.767Z,7.50
2023-03-21T19:11:21.894Z,7.50
2023-03-21T19:13:55.248Z,7.40
2023-03-21T19:16:31.084Z,7.40
2023-03-21T19:19:13.961Z,7.30
2023-03-21T19:21:47.110Z,7.30
2023-03-21T19:24:28.126Z,7.20
2023-03-21T19:27:00.433Z,7.20
2023-03-21T19:29:32.169Z,7.20
2023-03-21T19:32:02.937Z,7.10
2023-03-21T19:34:37.065Z,7.10
2023-03-21T19:37:07.883Z,7.00
2023-03-21T19:39:39.698Z,6.90
2023-03-21T19:42:16.989Z,6.90
2023-03-21T19:44:48.892Z,6.90
2023-03-21T19:47:20.785Z,6.80
2023-03-21T19:50:40.818Z,6.80
2023-03-21T19:52:46.768Z,6.70
2023-03-21T19:55:18.386Z,6.70
2023-03-21T19:57:50.262Z,6.60
2023-03-21T20:00:26.133Z,6.50
2023-03-21T20:02:58.118Z,6.50
2023-03-21T20:05:32.773Z,6.40
2023-03-21T20:08:04.506Z,6.30
2023-03-21T20:10:37.568Z,6.30
2023-03-21T20:13:10.249Z,6.20
2023-03-21T20:15:48.013Z,6.20
2023-03-21T20:18:21.044Z,6.10
2023-03-21T20:20:56.661Z,6.10
2023-03-21T20:23:28.489Z,6.00
2023-03-21T20:26:01.064Z,6.00
2023-03-21T20:28:34.599Z,5.90
2023-03-21T20:31:06.855Z,5.90
2023-03-21T20:33:38.674Z,5.80
2023-03-21T20:36:43.525Z,5.80
2023-03-21T20:39:05.167Z,5.70
2023-03-21T20:41:36.712Z,5.70
2023-03-21T20:47:00.455Z,5.60
2023-03-21T20:49:31.153Z,5.60
2023-03-21T20:54:59.641Z,5.50
2023-03-21T20:57:31.848Z,5.40
2023-03-21T21:00:09.333Z,5.30
2023-03-21T21:02:40.239Z,5.30
2023-03-21T21:05:25.358Z,5.20
2023-03-21T21:08:01.874Z,5.20
2023-03-21T21:10:33.595Z,5.10
2023-03-21T21:13:04.960Z,5.10
2023-03-21T21:15:35.929Z,5.10
2023-03-21T21:18:08.120Z,5.10
2023-03-21T21:20:39.379Z,5.00
2023-03-21T21:23:13.734Z,5.00
2023-03-21T21:25:44.343Z,4.90
2023-03-21T21:28:15.292Z,4.90
2023-03-21T21:30:46.009Z,4.90
2023-03-21T21:33:18.137Z,4.80
2023-03-21T21:35:49.940Z,4.70
2023-03-21T21:38:23.655Z,4.70
2023-03-21T21:40:54.576Z,4.70
2023-03-21T21:43:27.014Z,4.60
2023-03-21T21:45:57.732Z,4.60
2023-03-21T21:48:29.182Z,4.60
2023-03-21T21:51:01.738Z,4.50
2023-03-21T21:53:36.722Z,4.40
2023-03-21T21:56:07.404Z,4.40
2023-03-21T21:58:39.157Z,4.40
2023-03-21T22:01:11.044Z,4.40
2023-03-21T22:03:46.062Z,4.30
2023-03-21T22:06:17.053Z,4.30
2023-03-21T22:08:52.185Z,4.30
2023-03-21T22:11:22.750Z,4.30
2023-03-21T22:13:53.604Z,4.20
2023-03-21T22:16:24.493Z,4.20
2023-03-21T22:18:55.760Z,4.20
2023-03-21T22:21:26.496Z,4.10
2023-03-21T22:23:59.909Z,4.10
2023-03-21T22:26:30.568Z,4.10
2023-03-21T22:29:01.526Z,4.00
2023-03-21T22:31:32.731Z,3.90
2023-03-21T22:34:03.478Z,3.90
2023-03-21T22:36:34.696Z,3.90
2023-03-21T22:39:08.307Z,3.90
2023-03-21T22:41:38.788Z,3.90
2023-03-21T22:44:09.738Z,3.80
2023-03-21T22:46:40.457Z,3.90
2023-03-21T22:49:13.654Z,3.80
2023-03-21T22:51:44.077Z,3.80
2023-03-21T22:54:18.159Z,3.80
2023-03-21T22:56:48.610Z,3.70
2023-03-21T22:59:19.618Z,3.70
2023-03-21T23:01:50.097Z,3.70
2023-03-21T23:04:21.037Z,3.70
2023-03-21T23:06:51.666Z,3.60
2023-03-21T23:09:25.071Z,3.60
2023-03-21T23:11:55.942Z,3.60
2023-03-21T23:14:29.890Z,3.50
2023-03-21T23:17:04.135Z,3.50
2023-03-21T23:19:35.110Z,3.40
2023-03-21T23:22:06.204Z,3.40
2023-03-21T23:24:39.668Z,3.40
2023-03-21T23:27:10.256Z,3.30
2023-03-21T23:29:41.229Z,3.30
2023-03-21T23:32:11.645Z,3.40
2023-03-21T23:34:42.757Z,3.30
2023-03-21T23:37:13.288Z,3.30
2023-03-21T23:39:49.300Z,3.30
2023-03-21T23:42:19.812Z,3.30
2023-03-21T23:44:50.838Z,3.30
2023-03-21T23:47:21.652Z,3.30
2023-03-21T23:49:53.126Z,3.30
2023-03-21T23:52:23.636Z,3.30
2023-03-21T23:54:57.036Z,3.20
2023-03-21T23:57:27.683Z,3.20
2023-03-21T23:59:58.547Z,3.20
